Time;durP1;ratioP1;P1;durP2;ratioP2;P2;SDS_P1;SDS_P2;PMS_P1;PMS_P2;Temp;Humidity;BMP_temperature;BMP_pressure;BME280_temperature;BME280_humidity;BME280_pressure;Samples;Min_cycle;Max_cycle;Signal;HPM_P1;HPM_P2
2022/07/18 00:01:35;;;;;;;4.35;3.65;;;16.80;99.90;;;;;;4934332;29;20464;-72
2022/07/18 00:04:01;;;;;;;4.68;3.50;;;16.80;99.90;;;;;;4934418;29;20074;-73
2022/07/18 00:06:27;;;;;;;6.68;4.35;;;16.70;99.90;;;;;;4934015;29;20479;-75
2022/07/18 00:08:54;;;;;;;4.53;3.55;;;16.70;99.90;;;;;;4934514;29;20107;-74
2022/07/18 00:11:21;;;;;;;7.57;3.63;;;16.70;99.90;;;;;;4934399;29;20059;-75
2022/07/18 00:13:47;;;;;;;4.50;3.95;;;16.60;99.90;;;;;;4934479;29;20052;-75
2022/07/18 00:16:13;;;;;;;6.22;4.15;;;16.60;99.90;;;;;;4934831;29;20052;-73
2022/07/18 00:18:38;;;;;;;5.82;3.70;;;16.50;99.90;;;;;;4934465;29;20163;-75
2022/07/18 00:21:04;;;;;;;5.00;3.65;;;16.50;99.90;;;;;;4934818;29;20044;-75
2022/07/18 00:23:30;;;;;;;6.25;4.22;;;16.40;99.90;;;;;;4934426;29;20123;-74
2022/07/18 00:25:56;;;;;;;5.28;3.58;;;16.40;99.90;;;;;;4934516;29;20050;-72
2022/07/18 00:28:22;;;;;;;5.00;3.70;;;16.30;99.90;;;;;;4935025;29;20044;-75
2022/07/18 00:30:47;;;;;;;4.85;4.10;;;16.30;99.90;;;;;;4934591;29;20479;-76
2022/07/18 00:33:13;;;;;;;4.47;3.42;;;16.30;99.90;;;;;;4934783;29;20098;-75
2022/07/18 00:35:39;;;;;;;5.00;3.90;;;16.20;99.90;;;;;;4934508;29;20115;-75
2022/07/18 00:38:05;;;;;;;5.05;3.38;;;16.20;99.90;;;;;;4934117;29;20164;-75
2022/07/18 00:40:31;;;;;;;4.65;3.63;;;16.00;99.90;;;;;;4935490;29;20543;-74
2022/07/18 00:42:57;;;;;;;4.85;4.00;;;16.00;99.90;;;;;;4938270;29;20156;-76
2022/07/18 00:45:23;;;;;;;5.20;4.15;;;16.00;99.90;;;;;;4938162;29;20039;-76
2022/07/18 00:47:51;;;;;;;8.70;4.35;;;16.00;99.90;;;;;;4938101;29;20114;-75
2022/07/18 00:50:18;;;;;;;4.82;3.90;;;16.00;99.90;;;;;;4938334;29;20142;-72
2022/07/18 00:52:44;;;;;;;5.13;3.65;;;16.00;99.90;;;;;;4937828;29;20123;-75
2022/07/18 00:55:10;;;;;;;5.60;3.72;;;16.00;99.90;;;;;;4937738;29;20083;-72
2022/07/18 00:57:37;;;;;;;8.50;4.53;;;16.00;99.90;;;;;;4936659;29;20128;-73
2022/07/18 01:02:55;;;;;;;4.43;4.03;;;16.00;99.90;;;;;;4945394;29;20095;-75
2022/07/18 01:05:21;;;;;;;5.57;3.78;;;15.90;99.90;;;;;;4938189;29;20070;-75
2022/07/18 01:07:47;;;;;;;6.30;4.05;;;15.90;99.90;;;;;;4937669;29;20350;-78
2022/07/18 01:10:13;;;;;;;5.45;3.75;;;15.90;99.90;;;;;;4937883;29;20354;-76
2022/07/18 01:12:38;;;;;;;4.45;3.45;;;15.90;99.90;;;;;;4937779;29;20059;-78
2022/07/18 01:15:06;;;;;;;6.00;3.50;;;15.80;99.90;;;;;;4937570;29;20474;-76
2022/07/18 01:17:32;;;;;;;6.03;3.95;;;15.80;99.90;;;;;;4937785;29;20156;-77
2022/07/18 01:19:58;;;;;;;4.82;3.67;;;15.80;99.90;;;;;;4937168;29;20040;-78
2022/07/18 01:22:24;;;;;;;3.88;3.47;;;15.70;99.90;;;;;;4937537;29;20054;-78
2022/07/18 01:24:49;;;;;;;3.25;2.95;;;15.70;99.90;;;;;;4937033;29;20047;-74
2022/07/18 01:27:17;;;;;;;8.60;3.83;;;15.70;99.90;;;;;;4937314;29;20123;-77
2022/07/18 01:29:45;;;;;;;6.38;3.80;;;15.70;99.90;;;;;;4937074;29;20051;-78
2022/07/18 01:32:11;;;;;;;6.65;4.65;;;15.60;99.90;;;;;;4937377;29;20445;-75
2022/07/18 01:34:37;;;;;;;5.32;3.95;;;15.60;99.90;;;;;;4936539;29;20065;-76
2022/07/18 01:37:04;;;;;;;5.00;3.72;;;15.60;99.90;;;;;;4937038;29;20484;-78
2022/07/18 01:39:30;;;;;;;9.95;3.88;;;15.60;99.90;;;;;;4936954;29;20106;-77
2022/07/18 01:42:01;;;;;;;6.05;3.92;;;15.60;99.90;;;;;;4937168;29;20118;-74
2022/07/18 01:44:28;;;;;;;7.25;3.85;;;15.60;99.90;;;;;;4935779;29;20052;-76
2022/07/18 01:46:55;;;;;;;5.95;3.67;;;15.60;99.90;;;;;;4936814;29;20054;-77
2022/07/18 01:49:20;;;;;;;6.18;4.00;;;15.50;99.90;;;;;;4936855;29;20560;-76
2022/07/18 01:51:51;;;;;;;5.22;3.80;;;15.50;99.90;;;;;;4936547;29;20056;-75
2022/07/18 01:54:20;;;;;;;5.00;3.45;;;15.40;99.90;;;;;;4936591;29;20047;-75
2022/07/18 01:56:46;;;;;;;5.28;3.47;;;15.40;99.90;;;;;;4936645;29;20055;-76
2022/07/18 01:59:11;;;;;;;5.30;3.88;;;15.50;99.90;;;;;;4936684;29;20052;-77
2022/07/18 02:01:37;;;;;;;5.13;3.97;;;15.50;99.90;;;;;;4936269;29;20491;-76
2022/07/18 02:04:03;;;;;;;4.10;3.42;;;15.60;99.90;;;;;;4936402;29;20079;-76
2022/07/18 02:06:29;;;;;;;5.72;3.58;;;15.50;99.90;;;;;;4951640;29;20056;-74
2022/07/18 02:08:55;;;;;;;4.53;3.55;;;15.50;99.90;;;;;;4936530;29;20055;-76
2022/07/18 02:11:21;;;;;;;6.55;3.58;;;15.50;99.90;;;;;;4936396;29;20046;-77
2022/07/18 02:13:46;;;;;;;5.05;3.67;;;15.50;99.90;;;;;;4936634;29;20058;-77
2022/07/18 02:16:12;;;;;;;5.32;3.50;;;15.40;99.90;;;;;;4936213;29;20453;-77
2022/07/18 02:18:38;;;;;;;6.13;4.40;;;15.40;99.90;;;;;;4936013;29;20044;-74
2022/07/18 02:21:03;;;;;;;4.93;3.72;;;15.30;99.90;;;;;;4936456;29;20047;-76
2022/07/18 02:23:29;;;;;;;5.53;4.25;;;15.30;99.90;;;;;;4936467;29;20047;-77
2022/07/18 02:25:55;;;;;;;5.72;4.15;;;15.20;99.90;;;;;;4936114;29;20456;-77
2022/07/18 02:28:21;;;;;;;6.78;4.10;;;15.10;99.90;;;;;;4935027;29;20047;-77
2022/07/18 02:30:50;;;;;;;7.18;4.30;;;15.20;99.90;;;;;;4936104;29;20122;-76
2022/07/18 02:33:16;;;;;;;5.15;3.67;;;15.20;99.90;;;;;;4934833;29;20058;-74
2022/07/18 02:35:42;;;;;;;8.60;3.83;;;15.20;99.90;;;;;;4935627;29;20449;-77
2022/07/18 02:38:08;;;;;;;5.45;3.95;;;15.20;99.90;;;;;;4936205;29;20191;-74
2022/07/18 02:40:35;;;;;;;5.55;3.88;;;15.20;99.90;;;;;;4935476;29;20066;-75
2022/07/18 02:43:01;;;;;;;6.72;4.13;;;15.20;99.90;;;;;;4935609;29;20530;-74
2022/07/18 02:45:26;;;;;;;4.72;3.65;;;15.30;99.90;;;;;;4935766;29;20052;-74
2022/07/18 02:47:52;;;;;;;5.22;4.32;;;15.30;99.90;;;;;;4935781;29;20055;-75
2022/07/18 02:50:19;;;;;;;5.22;4.32;;;15.30;99.90;;;;;;4936035;29;20067;-73
2022/07/18 02:52:44;;;;;;;6.32;4.18;;;15.40;99.90;;;;;;4936245;29;20130;-75
2022/07/18 02:55:12;;;;;;;8.02;5.07;;;15.30;99.90;;;;;;4935656;29;20040;-73
2022/07/18 02:57:38;;;;;;;5.50;4.30;;;15.30;99.90;;;;;;4935564;29;20063;-72
2022/07/18 03:00:07;;;;;;;8.52;4.68;;;15.20;99.90;;;;;;4935478;29;20043;-74
2022/07/18 03:02:33;;;;;;;7.07;5.10;;;15.20;99.90;;;;;;4935721;29;20397;-75
2022/07/18 03:04:59;;;;;;;8.40;4.72;;;15.10;99.90;;;;;;4934829;29;20044;-74
2022/07/18 03:07:24;;;;;;;6.45;5.47;;;15.10;99.90;;;;;;4935495;29;20043;-76
2022/07/18 03:09:50;;;;;;;5.28;4.22;;;15.10;99.90;;;;;;4934263;29;20477;-75
2022/07/18 03:12:17;;;;;;;7.35;5.05;;;15.10;99.90;;;;;;4918799;29;20235;-72
2022/07/18 03:14:43;;;;;;;5.78;4.25;;;14.90;99.90;;;;;;4935321;29;20048;-74
2022/07/18 03:17:09;;;;;;;5.70;4.35;;;14.80;99.90;;;;;;4934537;29;20118;-75
2022/07/18 03:19:35;;;;;;;6.78;4.30;;;15.00;99.90;;;;;;4935409;29;20090;-76
2022/07/18 03:22:01;;;;;;;5.75;3.92;;;14.60;99.90;;;;;;4935369;29;20051;-73
2022/07/18 03:24:27;;;;;;;6.90;4.00;;;15.10;99.90;;;;;;4934389;29;20063;-74
2022/07/18 03:26:53;;;;;;;5.28;4.15;;;15.10;99.90;;;;;;4935072;29;20491;-74
2022/07/18 03:29:19;;;;;;;6.72;5.05;;;15.00;99.90;;;;;;4935167;29;20127;-75
2022/07/18 03:31:44;;;;;;;6.18;5.03;;;15.10;99.90;;;;;;4935491;29;20047;-76
2022/07/18 03:34:10;;;;;;;9.00;5.05;;;15.10;99.90;;;;;;4935486;29;20043;-73
2022/07/18 03:36:36;;;;;;;5.38;4.30;;;15.20;99.90;;;;;;4935031;29;20044;-73
2022/07/18 03:39:03;;;;;;;5.65;4.40;;;15.20;99.90;;;;;;4934948;29;20051;-73
2022/07/18 03:41:29;;;;;;;7.22;4.18;;;15.20;99.90;;;;;;4934985;29;20055;-76
2022/07/18 03:43:55;;;;;;;6.35;4.32;;;15.20;99.90;;;;;;4935218;29;20487;-73
2022/07/18 03:46:21;;;;;;;6.63;4.28;;;15.20;99.90;;;;;;4934906;29;20062;-71
2022/07/18 03:48:46;;;;;;;7.43;5.13;;;15.20;99.90;;;;;;4935176;29;20103;-74
2022/07/18 03:51:12;;;;;;;7.47;4.53;;;15.20;99.90;;;;;;4934680;29;20047;-71
2022/07/18 03:53:38;;;;;;;6.85;4.60;;;15.20;99.90;;;;;;4933680;29;20125;-75
2022/07/18 03:56:04;;;;;;;7.18;5.00;;;15.10;99.90;;;;;;4934979;29;20062;-75
2022/07/18 03:58:29;;;;;;;7.85;4.25;;;15.10;99.90;;;;;;4935180;29;20491;-75
2022/07/18 04:00:55;;;;;;;7.22;4.50;;;15.10;99.90;;;;;;4934780;29;20050;-73
2022/07/18 04:03:21;;;;;;;8.95;5.20;;;15.10;99.90;;;;;;4934842;29;20082;-74
2022/07/18 04:05:47;;;;;;;7.30;4.15;;;15.00;99.90;;;;;;4934595;29;20043;-75
2022/07/18 04:08:14;;;;;;;8.40;4.05;;;15.00;99.90;;;;;;4935172;29;20126;-75
2022/07/18 04:10:39;;;;;;;8.30;4.28;;;15.00;99.90;;;;;;4917598;29;20055;-75
2022/07/18 04:13:07;;;;;;;7.32;4.18;;;15.00;99.90;;;;;;4934781;29;20103;-73
2022/07/18 04:15:33;;;;;;;10.88;4.72;;;15.10;99.90;;;;;;4935384;29;20531;-74
2022/07/18 04:17:59;;;;;;;5.85;4.00;;;15.10;99.90;;;;;;4937358;29;20043;-74
2022/07/18 04:20:25;;;;;;;4.88;3.83;;;15.10;99.90;;;;;;4938464;29;20052;-76
2022/07/18 04:22:56;;;;;;;6.82;4.00;;;15.20;99.90;;;;;;4938427;29;20058;-75
2022/07/18 04:25:23;;;;;;;6.82;4.35;;;15.20;99.90;;;;;;4938629;29;20051;-77
2022/07/18 04:27:50;;;;;;;8.43;4.78;;;15.30;99.90;;;;;;4938481;29;20052;-76
2022/07/18 04:30:17;;;;;;;11.02;6.10;;;15.30;99.90;;;;;;4938694;29;20127;-75
2022/07/18 04:32:43;;;;;;;9.32;5.43;;;15.20;99.90;;;;;;4938460;29;20155;-74
2022/07/18 04:35:11;;;;;;;9.18;5.35;;;15.20;99.90;;;;;;4938226;29;20373;-77
2022/07/18 04:37:37;;;;;;;9.70;5.07;;;15.20;99.90;;;;;;4937715;29;20056;-73
2022/07/18 04:40:04;;;;;;;7.85;5.18;;;15.20;99.90;;;;;;4937834;29;20063;-73
2022/07/18 04:42:32;;;;;;;8.02;5.85;;;15.30;99.90;;;;;;4936811;29;20143;-77
2022/07/18 04:44:59;;;;;;;9.13;5.75;;;15.30;99.90;;;;;;4937975;29;20093;-76
2022/07/18 04:47:26;;;;;;;7.75;6.03;;;15.40;99.90;;;;;;4937804;29;20138;-77
2022/07/18 04:49:52;;;;;;;6.45;4.57;;;15.50;99.90;;;;;;4937814;29;20062;-76
2022/07/18 04:52:17;;;;;;;6.10;4.25;;;15.60;99.90;;;;;;4937725;29;20123;-76
2022/07/18 04:54:43;;;;;;;8.02;4.53;;;15.70;99.90;;;;;;4937857;29;20126;-75
2022/07/18 04:57:11;;;;;;;11.52;5.53;;;15.80;99.90;;;;;;4937873;29;20457;-76
2022/07/18 04:59:37;;;;;;;8.88;6.13;;;15.80;99.90;;;;;;4936966;29;20055;-73
2022/07/18 05:02:03;;;;;;;9.38;5.25;;;15.90;99.90;;;;;;4937544;29;20079;-76
2022/07/18 05:04:29;;;;;;;8.48;5.68;;;16.00;99.90;;;;;;4937291;29;20417;-76
2022/07/18 05:06:55;;;;;;;7.07;5.07;;;16.10;99.90;;;;;;4937673;29;20125;-76
2022/07/18 05:09:20;;;;;;;7.65;5.22;;;16.20;99.90;;;;;;4937427;29;20069;-75
2022/07/18 05:11:46;;;;;;;7.63;4.60;;;16.30;99.90;;;;;;4937672;29;20054;-75
2022/07/18 05:14:12;;;;;;;5.68;4.72;;;16.50;99.90;;;;;;4937187;29;20129;-76
2022/07/18 05:16:37;;;;;;;8.13;6.07;;;16.60;99.90;;;;;;4937199;29;20130;-74
2022/07/18 05:19:03;;;;;;;8.75;5.50;;;16.70;99.90;;;;;;4937046;29;20086;-74
2022/07/18 05:21:30;;;;;;;9.30;5.40;;;16.80;99.90;;;;;;4935893;29;20051;-75
2022/07/18 05:23:56;;;;;;;6.75;4.35;;;16.90;99.90;;;;;;4936949;29;20117;-73
2022/07/18 05:26:22;;;;;;;6.47;4.82;;;16.90;99.90;;;;;;4937255;29;20039;-76
2022/07/18 05:28:47;;;;;;;8.02;5.13;;;17.00;99.90;;;;;;4936047;29;20358;-73
2022/07/18 05:31:13;;;;;;;5.50;4.45;;;17.00;99.90;;;;;;4936702;29;20044;-73
2022/07/18 05:33:39;;;;;;;5.55;4.20;;;17.10;99.90;;;;;;4936872;29;20079;-76
2022/07/18 05:36:05;;;;;;;10.90;5.05;;;17.20;99.90;;;;;;4936668;29;20134;-73
2022/07/18 05:38:31;;;;;;;7.07;3.80;;;17.30;99.90;;;;;;4936652;29;20060;-75
2022/07/18 05:40:57;;;;;;;5.40;3.13;;;17.40;99.90;;;;;;4936995;29;20569;-75
2022/07/18 05:43:22;;;;;;;5.43;3.70;;;17.60;99.90;;;;;;4937004;29;20437;-73
2022/07/18 05:45:48;;;;;;;4.10;2.83;;;17.80;99.90;;;;;;4936531;29;20040;-75
2022/07/18 05:48:14;;;;;;;6.43;2.97;;;17.90;99.90;;;;;;4936581;29;20043;-76
2022/07/18 05:50:40;;;;;;;3.38;2.85;;;18.00;99.90;;;;;;4936771;29;20103;-75
2022/07/18 05:53:06;;;;;;;4.10;2.50;;;18.20;99.90;;;;;;4936680;29;20044;-74
2022/07/18 05:55:31;;;;;;;3.35;2.42;;;18.30;99.90;;;;;;4936536;29;20423;-76
2022/07/18 05:57:57;;;;;;;2.88;2.47;;;18.40;99.90;;;;;;4936465;29;20192;-76
2022/07/18 06:00:23;;;;;;;5.00;2.92;;;18.50;99.90;;;;;;4936571;29;20044;-73
2022/07/18 06:02:49;;;;;;;2.78;2.28;;;18.60;99.90;;;;;;4936367;29;20044;-75
2022/07/18 06:05:15;;;;;;;3.40;2.28;;;18.70;99.90;;;;;;4936144;29;20040;-75
2022/07/18 06:07:41;;;;;;;4.43;1.98;;;18.80;99.90;;;;;;4935682;29;20058;-76
2022/07/18 06:10:08;;;;;;;3.05;2.30;;;18.80;99.80;;;;;;4936535;29;20043;-74
2022/07/18 06:12:33;;;;;;;3.40;2.33;;;19.00;99.90;;;;;;4935831;29;20044;-73
2022/07/18 06:15:00;;;;;;;2.97;2.17;;;19.10;99.80;;;;;;4935642;29;20039;-75
2022/07/18 06:17:27;;;;;;;3.83;1.92;;;19.20;99.70;;;;;;4936332;29;20051;-74
2022/07/18 06:19:53;;;;;;;2.78;2.45;;;19.40;99.50;;;;;;4936545;29;20050;-74
2022/07/18 06:22:19;;;;;;;3.92;2.22;;;19.70;99.40;;;;;;4936287;29;20048;-74
2022/07/18 06:24:45;;;;;;;2.70;1.95;;;19.90;99.10;;;;;;4935846;29;20047;-74
2022/07/18 06:27:11;;;;;;;2.25;1.80;;;20.10;98.60;;;;;;4936254;29;20044;-74
2022/07/18 06:29:36;;;;;;;3.60;2.35;;;20.40;98.70;;;;;;4936137;29;20509;-72
2022/07/18 06:32:02;;;;;;;3.17;2.03;;;20.70;98.60;;;;;;4935990;29;20434;-73
2022/07/18 06:34:28;;;;;;;6.00;2.25;;;20.90;97.70;;;;;;4935768;29;20180;-73
2022/07/18 06:36:54;;;;;;;3.95;2.22;;;21.00;96.90;;;;;;4935574;29;20048;-74
2022/07/18 06:39:19;;;;;;;3.35;1.98;;;21.30;96.60;;;;;;4934278;29;20062;-75
2022/07/18 06:41:45;;;;;;;3.50;2.30;;;22.10;96.70;;;;;;4934443;29;20051;-76
2022/07/18 06:44:11;;;;;;;2.17;1.60;;;23.30;95.50;;;;;;4935792;29;20044;-76
2022/07/18 06:46:37;;;;;;;2.17;1.98;;;24.20;94.10;;;;;;4935936;29;20448;-75
2022/07/18 06:49:04;;;;;;;2.63;2.40;;;24.20;93.40;;;;;;4935732;29;20102;-74
2022/07/18 06:51:30;;;;;;;2.70;1.88;;;24.20;93.10;;;;;;4935426;29;20059;-73
2022/07/18 06:53:57;;;;;;;2.50;2.13;;;23.90;92.40;;;;;;4935633;29;20058;-74
2022/07/18 06:56:25;;;;;;;4.13;2.30;;;23.60;92.10;;;;;;4935109;29;20051;-74
2022/07/18 06:58:51;;;;;;;3.88;2.22;;;23.30;91.90;;;;;;4935641;29;20052;-74
2022/07/18 07:01:18;;;;;;;3.65;1.98;;;23.60;92.20;;;;;;4935184;29;20083;-73
2022/07/18 07:03:45;;;;;;;3.17;2.30;;;24.20;91.60;;;;;;4935230;29;20051;-74
2022/07/18 07:06:11;;;;;;;2.83;1.83;;;25.20;91.10;;;;;;4935205;29;20110;-73
2022/07/18 07:08:37;;;;;;;5.88;2.17;;;25.90;90.40;;;;;;4934939;29;20051;-75
2022/07/18 07:11:03;;;;;;;2.70;1.95;;;26.60;90.00;;;;;;4935002;29;20051;-74
2022/07/18 07:13:28;;;;;;;2.28;1.83;;;27.20;89.20;;;;;;4934868;29;20058;-75
2022/07/18 07:15:54;;;;;;;7.88;2.63;;;27.90;87.80;;;;;;4934922;29;20040;-75
2022/07/18 07:18:20;;;;;;;2.15;1.77;;;27.80;85.80;;;;;;4933775;29;20423;-74
2022/07/18 07:20:46;;;;;;;4.10;2.20;;;27.90;85.00;;;;;;4933981;29;20039;-73
2022/07/18 07:23:13;;;;;;;4.50;2.10;;;28.40;84.00;;;;;;4934936;29;20043;-74
2022/07/18 07:25:39;;;;;;;4.55;2.17;;;29.00;82.40;;;;;;4933558;29;20110;-75
2022/07/18 07:28:06;;;;;;;2.65;2.08;;;29.00;80.90;;;;;;4934398;29;20435;-76
2022/07/18 07:30:32;;;;;;;3.17;2.20;;;29.10;80.40;;;;;;4934873;29;20043;-77
2022/07/18 07:32:59;;;;;;;2.97;1.77;;;29.10;79.20;;;;;;4933979;29;20058;-75
2022/07/18 07:35:25;;;;;;;2.67;1.90;;;29.00;78.40;;;;;;4935160;29;20098;-75
2022/07/18 07:37:56;;;;;;;3.60;1.83;;;29.30;77.70;;;;;;4935084;29;20051;-75
2022/07/18 07:40:24;;;;;;;2.28;2.08;;;29.60;75.20;;;;;;4934890;29;20055;-77
2022/07/18 07:42:50;;;;;;;2.63;2.05;;;30.10;75.70;;;;;;4934561;29;20060;-76
2022/07/18 07:45:19;;;;;;;3.22;1.88;;;30.40;75.90;;;;;;4934776;29;20043;-75
2022/07/18 07:47:45;;;;;;;2.40;1.58;;;30.60;75.10;;;;;;4933695;29;20047;-76
2022/07/18 07:50:12;;;;;;;2.67;2.08;;;31.20;74.60;;;;;;4936185;29;20054;-74
2022/07/18 07:52:38;;;;;;;3.20;1.95;;;30.30;70.90;;;;;;4940938;29;20051;-77
2022/07/18 07:55:05;;;;;;;4.60;2.33;;;30.00;73.60;;;;;;4940967;29;20187;-77
2022/07/18 07:57:32;;;;;;;3.03;1.77;;;30.40;73.60;;;;;;4940894;29;20055;-75
2022/07/18 07:59:57;;;;;;;2.92;1.85;;;30.80;73.60;;;;;;4941155;29;20048;-76
2022/07/18 08:02:23;;;;;;;3.67;1.60;;;31.30;73.50;;;;;;4940867;29;20066;-76
2022/07/18 08:04:50;;;;;;;5.07;1.85;;;31.30;72.80;;;;;;4940739;29;20054;-77
2022/07/18 08:07:16;;;;;;;3.05;1.98;;;31.60;71.90;;;;;;4940856;29;20124;-76
2022/07/18 08:09:42;;;;;;;2.72;1.30;;;31.50;71.40;;;;;;4940803;29;20114;-78
2022/07/18 08:12:07;;;;;;;2.08;1.60;;;31.50;71.20;;;;;;4940617;29;20056;-77
2022/07/18 08:14:37;;;;;;;5.10;1.67;;;31.10;70.30;;;;;;4941093;29;20043;-78
2022/07/18 08:17:03;;;;;;;2.25;1.67;;;31.50;70.20;;;;;;4940758;29;20047;-75
2022/07/18 08:19:29;;;;;;;2.92;1.67;;;31.90;69.70;;;;;;4940725;29;20054;-75
2022/07/18 08:21:55;;;;;;;1.65;1.38;;;32.00;69.80;;;;;;4940581;29;20585;-74
2022/07/18 08:24:20;;;;;;;4.95;1.70;;;31.90;70.20;;;;;;4940484;29;20044;-75
2022/07/18 08:26:46;;;;;;;2.63;1.83;;;31.20;68.50;;;;;;4939348;29;20059;-75
2022/07/18 08:29:12;;;;;;;4.03;2.35;;;31.00;68.50;;;;;;4923570;29;20126;-74
2022/07/18 08:31:37;;;;;;;4.60;1.90;;;30.70;68.10;;;;;;4939669;29;20114;-75
2022/07/18 08:34:03;;;;;;;3.78;1.92;;;31.10;67.80;;;;;;4939606;29;20046;-78
2022/07/18 08:36:29;;;;;;;3.50;1.70;;;31.60;67.90;;;;;;4939287;29;20456;-75
2022/07/18 08:38:54;;;;;;;2.78;1.73;;;31.80;67.70;;;;;;4940728;29;20059;-77
2022/07/18 08:41:23;;;;;;;3.13;1.75;;;32.10;66.10;;;;;;4940701;29;20091;-78
2022/07/18 08:43:50;;;;;;;3.38;2.00;;;32.30;66.40;;;;;;4940731;29;20119;-77
2022/07/18 08:46:21;;;;;;;2.42;1.70;;;32.60;66.90;;;;;;4940799;29;20127;-77
2022/07/18 08:48:47;;;;;;;3.33;1.73;;;32.60;66.60;;;;;;4940773;29;20500;-76
2022/07/18 08:51:13;;;;;;;2.33;1.63;;;32.30;64.50;;;;;;4941037;29;20150;-74
2022/07/18 08:53:40;;;;;;;4.80;1.65;;;32.10;65.00;;;;;;4940637;29;20115;-77
2022/07/18 08:56:06;;;;;;;4.57;2.40;;;32.30;64.00;;;;;;4940938;29;20208;-76
2022/07/18 08:58:32;;;;;;;4.07;1.70;;;32.10;64.20;;;;;;4940687;29;20509;-77
2022/07/18 09:00:58;;;;;;;3.78;1.73;;;31.90;63.50;;;;;;4940608;29;20059;-75
2022/07/18 09:03:24;;;;;;;4.07;1.77;;;31.40;63.70;;;;;;4937723;29;20044;-76
2022/07/18 09:06:12;;;;;;;2.85;1.80;;;31.30;63.80;;;;;;4936303;29;20044;-78
2022/07/18 09:08:39;;;;;;;2.78;1.73;;;30.80;63.50;;;;;;4937652;29;20047;-75
2022/07/18 09:11:10;;;;;;;2.38;1.90;;;30.40;63.70;;;;;;4937544;29;20050;-78
2022/07/18 09:13:38;;;;;;;7.90;2.05;;;29.90;62.80;;;;;;4937984;29;20044;-78
2022/07/18 09:16:06;;;;;;;3.72;2.80;;;29.60;64.90;;;;;;4937255;29;20039;-76
2022/07/18 09:18:47;;;;;;;2.67;1.50;;;29.30;64.70;;;;;;4937343;29;20130;-77
2022/07/18 09:21:18;;;;;;;3.08;1.65;;;29.30;65.00;;;;;;4937257;29;20131;-75
2022/07/18 09:23:52;;;;;;;4.23;2.43;;;29.40;64.80;;;;;;4937691;29;20048;-77
2022/07/18 09:26:36;;;;;;;2.30;1.50;;;29.40;63.60;;;;;;4937266;29;20047;-77
2022/07/18 09:29:02;;;;;;;5.30;2.10;;;29.60;65.60;;;;;;4937206;29;20536;-77
2022/07/18 09:31:27;;;;;;;3.38;1.80;;;29.70;64.90;;;;;;4937114;29;20048;-78
2022/07/18 09:33:58;;;;;;;6.43;2.05;;;29.80;64.60;;;;;;4937447;29;20047;-75
2022/07/18 09:36:25;;;;;;;9.07;2.30;;;30.00;63.90;;;;;;4937102;29;20476;-77
2022/07/18 09:38:51;;;;;;;4.40;1.80;;;30.40;65.40;;;;;;4936843;29;20052;-76
2022/07/18 09:41:26;;;;;;;3.28;1.80;;;30.60;64.50;;;;;;4937533;29;20067;-78
2022/07/18 09:43:52;;;;;;;4.43;2.00;;;30.70;63.30;;;;;;4937024;29;20047;-77
2022/07/18 09:46:18;;;;;;;1.60;1.50;;;31.00;63.60;;;;;;4952067;29;20062;-74
2022/07/18 09:48:44;;;;;;;4.32;1.88;;;31.30;63.20;;;;;;4936965;29;20047;-77
2022/07/18 09:51:10;;;;;;;2.47;1.50;;;31.50;63.00;;;;;;4935542;29;20052;-77
2022/07/18 09:53:42;;;;;;;3.15;1.60;;;31.40;61.90;;;;;;4936821;29;20123;-78
2022/07/18 09:56:13;;;;;;;2.53;1.87;;;31.50;61.00;;;;;;4936778;29;20048;-77
2022/07/18 09:58:41;;;;;;;2.65;1.98;;;31.60;62.40;;;;;;4936750;29;20054;-73
2022/07/18 10:01:09;;;;;;;4.03;1.95;;;31.50;61.50;;;;;;4936578;29;20059;-77
2022/07/18 10:03:35;;;;;;;2.30;1.70;;;31.40;61.40;;;;;;4936554;29;20062;-77
2022/07/18 10:06:03;;;;;;;4.75;1.50;;;31.70;61.90;;;;;;4937237;29;20054;-76
2022/07/18 10:08:31;;;;;;;3.63;1.50;;;32.00;61.60;;;;;;4936548;29;20047;-77
2022/07/18 10:10:59;;;;;;;3.97;1.65;;;32.10;60.80;;;;;;4936557;29;20115;-77
2022/07/18 10:13:27;;;;;;;2.05;1.70;;;32.40;60.60;;;;;;4935821;29;20054;-78
2022/07/18 10:15:53;;;;;;;6.03;2.33;;;32.50;60.80;;;;;;4936447;29;20046;-77
2022/07/18 10:18:22;;;;;;;4.30;2.05;;;32.60;60.70;;;;;;4936439;29;20118;-76
2022/07/18 10:20:56;;;;;;;7.03;1.75;;;32.70;59.60;;;;;;4936223;29;20050;-76
2022/07/18 10:23:29;;;;;;;3.13;1.65;;;32.60;58.80;;;;;;4936571;29;20393;-77
2022/07/18 10:26:13;;;;;;;3.85;1.73;;;32.40;59.50;;;;;;4936401;29;20051;-77
2022/07/18 10:29:00;;;;;;;1.85;1.50;;;32.80;58.80;;;;;;4936205;29;20071;-77
2022/07/18 10:31:42;;;;;;;2.50;1.40;;;32.80;59.40;;;;;;4936166;29;20063;-74
2022/07/18 10:34:07;;;;;;;;;;;32.80;59.50;;;;;;4936586;29;20104;-77
2022/07/18 10:36:51;;;;;;;2.92;1.75;;;32.50;57.70;;;;;;4936025;29;19933;-77
2022/07/18 10:39:25;;;;;;;2.88;1.55;;;32.70;58.30;;;;;;4935666;29;20059;-74
2022/07/18 10:42:01;;;;;;;2.10;1.80;;;33.10;58.00;;;;;;4935944;29;20091;-75
2022/07/18 10:44:29;;;;;;;5.68;1.83;;;33.10;59.00;;;;;;4935532;29;20471;-77
2022/07/18 10:47:08;;;;;;;3.70;2.13;;;33.30;58.80;;;;;;4935813;29;20494;-77
2022/07/18 10:49:48;;;;;;;3.00;1.95;;;33.70;56.90;;;;;;4935789;29;20107;-78
2022/07/18 10:52:26;;;;;;;2.42;1.98;;;33.70;56.70;;;;;;4935694;29;20058;-78
2022/07/18 10:55:08;;;;;;;3.38;2.13;;;33.60;55.20;;;;;;4936034;29;20079;-78
2022/07/18 10:57:55;;;;;;;3.33;1.95;;;33.60;55.80;;;;;;4935995;29;20098;-79
2022/07/18 11:00:26;;;;;;;7.05;2.53;;;33.50;56.10;;;;;;4935014;29;20062;-75
2022/07/18 11:03:08;;;;;;;;;;;33.50;55.10;;;;;;4935970;29;20047;-77
2022/07/18 11:05:43;;;;;;;5.50;2.45;;;33.20;55.50;;;;;;4935611;29;19932;-79
2022/07/18 11:08:13;;;;;;;6.05;2.60;;;33.40;54.90;;;;;;4935423;29;20052;-73
2022/07/18 11:10:49;;;;;;;6.97;3.10;;;33.30;54.00;;;;;;4935309;29;20106;-74
2022/07/18 11:13:30;;;;;;;4.22;2.47;;;33.40;54.70;;;;;;4935840;29;20056;-77
2022/07/18 11:16:15;;;;;;;3.63;2.60;;;33.40;54.60;;;;;;4933759;29;20428;-75
2022/07/18 11:18:44;;;;;;;3.65;2.70;;;33.50;55.00;;;;;;4935094;29;20055;-74
2022/07/18 11:21:25;;;;;;;4.15;2.75;;;33.50;54.80;;;;;;4934829;29;20083;-76
2022/07/18 11:23:54;;;;;;;5.05;2.60;;;33.50;54.10;;;;;;4935101;29;20492;-74
2022/07/18 11:26:23;;;;;;;3.55;2.40;;;33.60;54.80;;;;;;4934289;29;20050;-77
2022/07/18 11:29:03;;;;;;;4.78;2.53;;;33.50;54.70;;;;;;4935052;29;20058;-76
2022/07/18 11:31:30;;;;;;;2.65;2.20;;;33.50;54.70;;;;;;4935118;29;20122;-78
2022/07/18 11:33:59;;;;;;;4.40;2.53;;;33.50;54.70;;;;;;4935087;29;20081;-76
2022/07/18 11:36:30;;;;;;;2.90;2.38;;;33.30;54.20;;;;;;4935308;29;20051;-76
2022/07/18 11:39:00;;;;;;;2.80;2.50;;;33.20;54.10;;;;;;4935023;29;20048;-75
2022/07/18 11:41:27;;;;;;;3.28;2.97;;;33.20;54.50;;;;;;4934886;29;20526;-75
2022/07/18 11:43:54;;;;;;;5.63;3.20;;;33.10;54.10;;;;;;4935227;29;20180;-76
2022/07/18 11:46:22;;;;;;;3.83;3.30;;;33.10;54.10;;;;;;4933680;29;20091;-78
2022/07/18 11:49:03;;;;;;;5.30;3.00;;;33.10;53.80;;;;;;4933728;29;20063;-76
2022/07/18 11:51:55;;;;;;;3.72;2.85;;;33.10;53.10;;;;;;4935118;29;20044;-75
2022/07/18 11:54:25;;;;;;;3.60;2.60;;;33.00;53.60;;;;;;4934021;29;20052;-75
2022/07/18 11:56:53;;;;;;;5.80;2.67;;;32.90;52.90;;;;;;4934404;29;20091;-73
2022/07/18 11:59:19;;;;;;;5.13;2.97;;;32.90;53.50;;;;;;4917815;29;20478;-76
2022/07/18 12:01:52;;;;;;;5.78;3.00;;;33.00;53.30;;;;;;4934451;29;20040;-75
2022/07/18 12:04:18;;;;;;;;;;;33.00;53.10;;;;;;4934892;29;20044;-76
2022/07/18 12:06:44;;;;;;;5.10;3.05;;;33.00;53.30;;;;;;4934467;29;19930;-77
2022/07/18 12:09:10;;;;;;;6.20;2.85;;;33.00;53.00;;;;;;4934640;29;20043;-77
2022/07/18 12:11:38;;;;;;;5.07;2.75;;;33.00;52.60;;;;;;4934008;29;20486;-76
2022/07/18 12:14:06;;;;;;;4.05;2.80;;;33.10;52.70;;;;;;4934586;29;20051;-76
2022/07/18 12:16:41;;;;;;;4.93;3.25;;;33.10;53.00;;;;;;4934459;29;20551;-77
2022/07/18 12:19:17;;;;;;;4.85;3.13;;;33.10;51.80;;;;;;4934356;29;20114;-76
2022/07/18 12:21:53;;;;;;;3.65;2.47;;;33.20;52.90;;;;;;4933052;29;20092;-74
2022/07/18 12:24:34;;;;;;;5.95;3.30;;;33.10;52.20;;;;;;4934581;29;20070;-74
2022/07/18 12:27:16;;;;;;;5.35;3.00;;;33.00;52.00;;;;;;4934475;29;20127;-78
2022/07/18 12:30:08;;;;;;;3.70;2.85;;;33.20;52.60;;;;;;4934568;29;20051;-77
2022/07/18 12:32:39;;;;;;;5.07;2.97;;;33.20;52.20;;;;;;4933528;29;20051;-75
2022/07/18 12:35:17;;;;;;;3.35;2.53;;;33.30;52.10;;;;;;4934242;29;20521;-78
2022/07/18 12:37:52;;;;;;;3.78;3.08;;;33.30;52.60;;;;;;4936725;29;20092;-77
2022/07/18 12:40:18;;;;;;;6.60;3.00;;;33.30;51.10;;;;;;4937421;29;20059;-74
2022/07/18 12:42:43;;;;;;;4.85;3.22;;;33.50;52.10;;;;;;4937995;29;20052;-76
2022/07/18 12:45:11;;;;;;;3.53;2.35;;;33.60;52.20;;;;;;4936840;29;20069;-77
2022/07/18 12:47:37;;;;;;;7.97;3.55;;;33.40;52.40;;;;;;4937690;29;20059;-76
2022/07/18 12:50:04;;;;;;;4.50;3.15;;;33.40;52.80;;;;;;4936337;29;20044;-77
2022/07/18 12:52:29;;;;;;;5.65;3.10;;;33.30;52.10;;;;;;4937615;29;20071;-77
2022/07/18 12:54:55;;;;;;;3.47;3.17;;;33.20;52.30;;;;;;4937494;29;20056;-77